Other Surface Observations
Issued by NWS Great Falls, MT

Home | Current Version | Previous Version | Text Only | Print | Product List | Glossary On
Versions: 1 2 3 4 5 6 7 8 9 10 11 12 13 14 15 16 17 18 19 20 21 22 23 24 25 26 27 28 29 30 31 32 33 34 35 36 37 38 39 40 41 42 43 44 45 46 47 48 49 50
753
SXUS55 KTFX 300430
OSOTFX
AREA AWOS OBSERVATIONS
NATIONAL WEATHER SERVICE GREAT FALLS MT
1029 PM MDT FRI APR 29 2016

METAR KPWD 300430Z AUTO 08008KT 10SM 09/M03 A3015 RMK PLENTYWOOD
METAR KPO1 300430Z AUTO 07007KT 10SM 07/M01 A3013 RMK POPLAR
METAR K1S3 300430Z AUTO 08005KT 10SM 07/03 A3007 RMK FORSYTH
METAR KS71 300430Z AUTO 07003KT 10SM 09/04 A3007 RMK CHINOOK
METAR K38S 300430Z AUTO 30009KT 6SM 04/02 A3000 RMK DEER LODGE
METAR K3U3 300430Z AUTO 30005KT 02/01 A2999 RMK ANACONDA
METAR K6S5 300430Z AUTO 36005KT 10SM 06/03 A3000 RMK HAMILTON
METAR KS59 300430Z AUTO 00000KT 10SM 08/03 A3003 RMK LIBBY
METAR K88M 300430Z AUTO 00000KT 10SM 08/04 A3003 RMK EUREKA



USA.gov is the U.S. government's official web portal to all federal, state and local government web resources and services.